createdAt,value
2023-03-10T00:01:34.995Z,96856.03
2023-03-10T00:04:04.553Z,96848.34
2023-03-10T00:06:37.554Z,96858.47
2023-03-10T00:09:06.292Z,96851.53
2023-03-10T00:11:36.520Z,96841.38
2023-03-10T00:14:05.276Z,96849.34
2023-03-10T00:16:33.972Z,96841.66
2023-03-10T00:19:02.623Z,96843.53
2023-03-10T00:21:33.818Z,96838.72
2023-03-10T00:24:02.692Z,96831.81
2023-03-10T00:26:31.873Z,96836.84
2023-03-10T00:29:02.006Z,96825.72
2023-03-10T00:31:32.637Z,96832.31
2023-03-10T00:34:02.356Z,96827.53
2023-03-10T00:36:33.772Z,96823.50
2023-03-10T00:39:05.025Z,96820.84
2023-03-10T00:41:36.588Z,96828.25
2023-03-10T00:44:09.653Z,96809.44
2023-03-10T00:46:39.812Z,96804.69
2023-03-10T00:49:10.179Z,96793.06
2023-03-10T00:51:39.034Z,96792.53
2023-03-10T00:54:07.717Z,96794.44
2023-03-10T00:56:36.470Z,96785.72
2023-03-10T00:59:07.744Z,96788.91
2023-03-10T01:01:40.741Z,96781.47
2023-03-10T01:04:14.144Z,96770.84
2023-03-10T01:06:47.561Z,96769.31
2023-03-10T01:09:17.998Z,96770.41
2023-03-10T01:11:47.332Z,96760.31
2023-03-10T01:14:19.545Z,96763.50
2023-03-10T01:16:48.244Z,96755.03
2023-03-10T01:19:18.515Z,96753.41
2023-03-10T01:21:47.250Z,96744.91
2023-03-10T01:24:17.391Z,96739.59
2023-03-10T01:26:46.265Z,96732.66
2023-03-10T01:29:16.398Z,96729.47
2023-03-10T01:31:45.161Z,96711.72
2023-03-10T01:34:13.923Z,96715.69
2023-03-10T01:36:43.693Z,96711.72
2023-03-10T01:39:12.394Z,96709.59
2023-03-10T01:41:43.330Z,96691.25
2023-03-10T01:44:20.133Z,96696.53
2023-03-10T01:46:52.165Z,96686.72
2023-03-10T01:49:41.419Z,96683.81
2023-03-10T01:52:17.698Z,96672.91
2023-03-10T01:54:51.575Z,96684.34
2023-03-10T01:57:26.515Z,96686.69
2023-03-10T01:59:59.909Z,96681.91
2023-03-10T02:02:36.812Z,96681.09
2023-03-10T02:05:06.201Z,96669.69
2023-03-10T02:07:37.873Z,96668.91
2023-03-10T02:10:09.940Z,96663.63
2023-03-10T02:12:38.652Z,96659.91
2023-03-10T02:15:11.214Z,96646.88
2023-03-10T02:17:41.665Z,96644.00
2023-03-10T02:20:30.828Z,96640.84
2023-03-10T02:23:00.394Z,96637.91
2023-03-10T02:25:40.284Z,96641.91
2023-03-10T02:28:10.924Z,96636.88
2023-03-10T02:30:42.574Z,96639.28
2023-03-10T02:33:17.745Z,96634.53
2023-03-10T02:35:47.281Z,96632.97
2023-03-10T02:38:22.161Z,96623.41
2023-03-10T02:40:54.810Z,96624.22
2023-03-10T02:43:33.051Z,96619.44
2023-03-10T02:46:25.750Z,96622.91
2023-03-10T02:48:54.480Z,96617.31
2023-03-10T02:51:33.101Z,96599.00
2023-03-10T02:54:05.450Z,96596.88
2023-03-10T02:56:34.429Z,96594.22
2023-03-10T02:59:05.985Z,96589.19
2023-03-10T03:01:36.277Z,96585.69
2023-03-10T03:04:05.797Z,96578.78
2023-03-10T03:06:35.216Z,96560.97
2023-03-10T03:09:05.307Z,96559.13
2023-03-10T03:11:34.552Z,96556.75
2023-03-10T03:14:04.957Z,96553.56
2023-03-10T03:16:34.324Z,96550.63
2023-03-10T03:19:06.778Z,96553.81
2023-03-10T03:21:35.676Z,96549.28
2023-03-10T03:24:05.191Z,96545.31
2023-03-10T03:26:33.981Z,96540.78
2023-03-10T03:29:15.783Z,96535.72
2023-03-10T03:31:44.778Z,96527.75
2023-03-10T03:34:21.139Z,96527.50
2023-03-10T03:36:53.740Z,96515.53
2023-03-10T03:39:32.189Z,96511.28
2023-03-10T03:42:04.611Z,96500.63
2023-03-10T03:44:44.263Z,96503.28
2023-03-10T03:47:13.656Z,96496.91
2023-03-10T03:49:42.898Z,96487.88
2023-03-10T03:52:13.183Z,96487.63
2023-03-10T03:54:42.029Z,96484.69
2023-03-10T03:57:11.940Z,96472.97
2023-03-10T03:59:40.991Z,96473.25
2023-03-10T04:02:11.558Z,96482.31
2023-03-10T04:04:40.807Z,96474.56
2023-03-10T04:07:10.240Z,96470.06
2023-03-10T04:09:41.270Z,96472.97
2023-03-10T04:12:11.892Z,96471.94
2023-03-10T04:14:43.624Z,96473.53
2023-03-10T04:17:13.749Z,96463.44
2023-03-10T04:19:42.783Z,96463.97
2023-03-10T04:22:14.685Z,96453.34
2023-03-10T04:24:44.132Z,96453.06
2023-03-10T04:27:13.179Z,96451.19
2023-03-10T04:29:42.478Z,96445.38
2023-03-10T04:32:12.763Z,96448.56
2023-03-10T04:34:43.358Z,96434.75
2023-03-10T04:37:12.877Z,96440.06
2023-03-10T04:39:41.693Z,96440.84
2023-03-10T04:42:10.891Z,96444.81
2023-03-10T04:44:39.760Z,96446.97
2023-03-10T04:47:09.915Z,96451.75
2023-03-10T04:49:40.763Z,96439.28
2023-03-10T04:52:14.633Z,96441.66
2023-03-10T04:54:45.235Z,96440.34
2023-03-10T04:57:14.461Z,96438.47
2023-03-10T04:59:44.366Z,96437.16
2023-03-10T05:02:14.029Z,96440.06
2023-03-10T05:04:44.515Z,96436.88
2023-03-10T05:07:13.331Z,96435.03
2023-03-10T05:09:48.365Z,96429.44
2023-03-10T05:12:17.787Z,96429.44
2023-03-10T05:14:46.704Z,96430.50
2023-03-10T05:17:18.778Z,96422.53
2023-03-10T05:20:00.569Z,96421.97
2023-03-10T05:22:39.822Z,96426.50
2023-03-10T05:25:13.460Z,96424.09
2023-03-10T05:27:45.741Z,96422.53
2023-03-10T05:30:16.852Z,96424.91
2023-03-10T05:32:49.526Z,96427.28
2023-03-10T05:35:20.576Z,96432.59
2023-03-10T05:37:49.997Z,96425.94
2023-03-10T05:40:20.857Z,96419.28
2023-03-10T05:42:51.529Z,96414.50
2023-03-10T05:45:22.991Z,96417.69
2023-03-10T05:47:53.532Z,96418.72
2023-03-10T05:50:24.798Z,96428.56
2023-03-10T05:52:59.019Z,96420.31
2023-03-10T05:55:29.802Z,96418.44
2023-03-10T05:57:58.694Z,96415.78
2023-03-10T06:00:28.216Z,96423.75
2023-03-10T06:03:03.061Z,96424.53
2023-03-10T06:05:33.192Z,96421.84
2023-03-10T06:08:01.856Z,96427.97
2023-03-10T06:10:30.654Z,96429.03
2023-03-10T06:12:59.399Z,96423.41
2023-03-10T06:15:28.249Z,96426.88
2023-03-10T06:17:56.947Z,96409.59
2023-03-10T06:20:25.736Z,96412.22
2023-03-10T06:22:55.734Z,96413.78
2023-03-10T06:25:24.570Z,96414.84
2023-03-10T06:27:53.279Z,96414.03
2023-03-10T06:30:22.516Z,96415.88
2023-03-10T06:32:51.278Z,96408.63
2023-03-10T06:35:20.424Z,96422.47
2023-03-10T06:37:49.202Z,96405.16
2023-03-10T06:40:19.966Z,96405.69
2023-03-10T06:42:48.721Z,96401.94
2023-03-10T06:45:18.565Z,96410.47
2023-03-10T06:47:47.228Z,96402.19
2023-03-10T06:50:19.136Z,96396.28
2023-03-10T06:52:47.837Z,96410.38
2023-03-10T06:55:17.068Z,96407.66
2023-03-10T06:57:47.185Z,96411.34
2023-03-10T07:00:18.319Z,96412.69
2023-03-10T07:02:47.074Z,96418.53
2023-03-10T07:05:15.987Z,96411.88
2023-03-10T07:07:44.694Z,96416.94
2023-03-10T07:10:15.842Z,96417.19
2023-03-10T07:12:44.615Z,96412.38
2023-03-10T07:15:14.747Z,96407.56
2023-03-10T07:17:43.390Z,96414.97
2023-03-10T07:20:14.113Z,96406.94
2023-03-10T07:22:43.232Z,96411.97
2023-03-10T07:25:12.685Z,96425.56
2023-03-10T07:27:41.456Z,96415.91
2023-03-10T07:30:11.963Z,96427.00
2023-03-10T07:32:42.202Z,96429.63
2023-03-10T07:35:11.594Z,96430.09
2023-03-10T07:37:41.276Z,96427.84
2023-03-10T07:40:12.454Z,96426.94
2023-03-10T07:42:41.091Z,96427.16
2023-03-10T07:45:12.374Z,96421.78
2023-03-10T07:47:42.489Z,96417.91
2023-03-10T07:50:12.954Z,96421.00
2023-03-10T07:52:41.653Z,96412.38
2023-03-10T07:55:11.428Z,96425.88
2023-03-10T07:57:40.184Z,96417.25
2023-03-10T08:00:11.075Z,96417.53
2023-03-10T08:02:44.570Z,96418.84
2023-03-10T08:05:14.943Z,96426.78
2023-03-10T08:07:43.909Z,96434.63
2023-03-10T08:10:14.451Z,96433.81
2023-03-10T08:12:43.223Z,96432.25
2023-03-10T08:15:14.669Z,96430.31
2023-03-10T08:17:44.825Z,96427.97
2023-03-10T08:20:14.514Z,96428.72
2023-03-10T08:22:43.206Z,96430.81
2023-03-10T08:25:13.024Z,96431.88
2023-03-10T08:27:42.253Z,96439.31
2023-03-10T08:30:12.845Z,96431.97
2023-03-10T08:32:41.727Z,96424.06
2023-03-10T08:35:12.767Z,96433.53
2023-03-10T08:37:43.252Z,96434.41
2023-03-10T08:40:14.500Z,96425.50
2023-03-10T08:42:43.267Z,96432.59
2023-03-10T08:45:14.086Z,96437.88
2023-03-10T08:47:43.001Z,96425.28
2023-03-10T08:50:14.662Z,96433.38
2023-03-10T08:52:43.603Z,96427.06
2023-03-10T08:55:13.407Z,96439.56
2023-03-10T08:57:42.246Z,96425.56
2023-03-10T09:00:16.136Z,96438.91
2023-03-10T09:02:45.878Z,96440.13
2023-03-10T09:05:16.077Z,96437.72
2023-03-10T09:07:44.880Z,96427.81
2023-03-10T09:10:13.582Z,96436.63
2023-03-10T09:12:42.286Z,96438.44
2023-03-10T09:15:11.875Z,96438.81
2023-03-10T09:17:41.027Z,96437.25
2023-03-10T09:20:11.359Z,96429.28
2023-03-10T09:22:41.498Z,96442.22
2023-03-10T09:25:11.664Z,96442.31
2023-03-10T09:27:40.403Z,96452.53
2023-03-10T09:30:10.505Z,96450.50
2023-03-10T09:32:39.248Z,96445.59
2023-03-10T09:35:09.321Z,96442.81
2023-03-10T09:37:38.008Z,96452.94
2023-03-10T09:40:14.529Z,96439.34
2023-03-10T09:42:46.400Z,96437.09
2023-03-10T09:45:31.907Z,96427.38
2023-03-10T09:48:29.452Z,96418.53
2023-03-10T09:51:01.255Z,96427.13
2023-03-10T09:53:52.592Z,96404.84
2023-03-10T09:56:29.995Z,96414.53
2023-03-10T09:59:05.520Z,96401.28
2023-03-10T10:01:35.952Z,96408.94
2023-03-10T10:04:13.071Z,96401.25
2023-03-10T10:06:46.759Z,96411.22
2023-03-10T10:09:27.331Z,96392.72
2023-03-10T10:11:57.872Z,96396.34
2023-03-10T10:14:31.446Z,96416.28
2023-03-10T10:17:10.213Z,96412.13
2023-03-10T10:19:41.154Z,96404.19
2023-03-10T10:22:20.647Z,96413.50
2023-03-10T10:25:12.255Z,96420.53
2023-03-10T10:27:45.454Z,96427.69
2023-03-10T10:30:33.661Z,96431.94
2023-03-10T10:33:04.564Z,96423.72
2023-03-10T10:35:37.018Z,96436.72
2023-03-10T10:38:08.594Z,96439.41
2023-03-10T10:40:49.093Z,96432.94
2023-03-10T10:43:22.371Z,96423.56
2023-03-10T10:45:56.219Z,96435.41
2023-03-10T10:48:40.608Z,96435.59
2023-03-10T10:51:24.579Z,96432.34
2023-03-10T10:53:54.893Z,96447.16
2023-03-10T10:56:25.086Z,96442.69
2023-03-10T10:59:21.869Z,96446.94
2023-03-10T11:01:55.407Z,96436.75
2023-03-10T11:04:26.793Z,96444.84
2023-03-10T11:07:12.668Z,96440.44
2023-03-10T11:09:41.359Z,96425.72
2023-03-10T11:12:20.641Z,96436.84
2023-03-10T11:15:21.169Z,96436.22
2023-03-10T11:17:57.617Z,96420.09
2023-03-10T11:20:38.066Z,96417.78
2023-03-10T11:23:22.196Z,96412.72
2023-03-10T11:26:00.174Z,96405.00
2023-03-10T11:28:49.058Z,96406.06
2023-03-10T11:31:38.049Z,96401.94
2023-03-10T11:34:21.127Z,96397.69
2023-03-10T11:37:04.902Z,96394.53
2023-03-10T11:39:56.172Z,96388.38
2023-03-10T11:42:35.941Z,96387.59
2023-03-10T11:45:21.658Z,96372.56
2023-03-10T11:48:07.329Z,96361.53
2023-03-10T11:50:46.100Z,96362.78
2023-03-10T11:53:23.168Z,96364.06
2023-03-10T11:55:54.044Z,96352.06
2023-03-10T11:58:29.714Z,96352.53
2023-03-10T12:00:59.736Z,96359.91
2023-03-10T12:03:43.616Z,96353.69
2023-03-10T12:06:21.105Z,96358.66
2023-03-10T12:08:56.801Z,96353.28
2023-03-10T12:11:28.550Z,96351.44
2023-03-10T12:14:01.550Z,96353.03
2023-03-10T12:16:35.848Z,96352.72
2023-03-10T12:19:07.761Z,96352.41
2023-03-10T12:21:36.675Z,96352.69
2023-03-10T12:24:06.669Z,96343.38
2023-03-10T12:27:05.981Z,96346.03
2023-03-10T12:29:42.581Z,96342.59
2023-03-10T12:32:48.392Z,96328.91
2023-03-10T12:35:52.616Z,96323.06
2023-03-10T12:38:40.411Z,96319.03
2023-03-10T12:41:09.570Z,96326.16
2023-03-10T12:44:28.801Z,96324.06
2023-03-10T12:47:12.290Z,96326.84
2023-03-10T12:49:55.206Z,96323.78
2023-03-10T12:52:39.826Z,96331.56
2023-03-10T12:55:22.463Z,96322.00
2023-03-10T12:58:04.016Z,96319.94
2023-03-10T13:00:47.838Z,96314.41
2023-03-10T13:03:42.894Z,96315.06
2023-03-10T13:06:25.595Z,96309.72
2023-03-10T13:09:01.838Z,96309.59
2023-03-10T13:11:40.416Z,96300.13
2023-03-10T13:14:15.705Z,96294.75
2023-03-10T13:16:55.026Z,96291.06
2023-03-10T13:19:26.555Z,96282.00
2023-03-10T13:21:55.586Z,96284.75
2023-03-10T13:24:29.681Z,96269.69
2023-03-10T13:27:13.806Z,96266.63
2023-03-10T13:29:55.954Z,96265.19
2023-03-10T13:32:25.718Z,96258.47
2023-03-10T13:34:55.510Z,96262.81
2023-03-10T13:37:25.232Z,96260.84
2023-03-10T13:40:10.321Z,96252.16
2023-03-10T13:42:44.125Z,96263.31
2023-03-10T13:45:25.263Z,96253.69
2023-03-10T13:47:55.897Z,96255.94
2023-03-10T13:50:26.214Z,96254.72
2023-03-10T13:52:57.906Z,96262.63
2023-03-10T13:55:29.944Z,96248.06
2023-03-10T13:58:00.004Z,96248.53
2023-03-10T14:00:30.137Z,96252.81
2023-03-10T14:02:59.051Z,96262.00
2023-03-10T14:05:48.824Z,96249.50
2023-03-10T14:08:27.940Z,96259.22
2023-03-10T14:11:35.739Z,96262.13
2023-03-10T14:14:12.688Z,96305.72
2023-03-10T14:17:00.394Z,96328.78
2023-03-10T14:19:56.760Z,96338.41
2023-03-10T14:22:38.147Z,96349.41
2023-03-10T14:25:15.200Z,96342.41
2023-03-10T14:27:50.205Z,96336.66
2023-03-10T14:30:26.318Z,96332.84
2023-03-10T14:32:57.473Z,96329.59
2023-03-10T14:35:29.695Z,96322.97
2023-03-10T14:37:58.911Z,96327.44
2023-03-10T14:40:27.868Z,96324.88
2023-03-10T14:43:03.983Z,96328.22
2023-03-10T14:45:36.464Z,96346.22
2023-03-10T14:48:15.372Z,96339.69
2023-03-10T14:50:44.497Z,96331.66
2023-03-10T14:53:16.002Z,96330.97
2023-03-10T14:55:49.099Z,96328.34
2023-03-10T14:58:23.208Z,96322.69
2023-03-10T15:00:52.733Z,96330.94
2023-03-10T15:03:24.175Z,96330.53
2023-03-10T15:05:52.875Z,96336.06
2023-03-10T15:08:21.781Z,96334.16
2023-03-10T15:10:53.137Z,96332.91
2023-03-10T15:13:25.543Z,96319.63
2023-03-10T15:15:54.854Z,96309.38
2023-03-10T15:18:27.136Z,96321.34
2023-03-10T15:20:59.379Z,96301.31
2023-03-10T15:23:29.379Z,96303.50
2023-03-10T15:25:59.605Z,96307.22
2023-03-10T15:28:29.707Z,96304.06
2023-03-10T15:30:58.826Z,96304.97
2023-03-10T15:33:28.181Z,96300.22
2023-03-10T15:35:58.202Z,96296.50
2023-03-10T15:38:28.435Z,96292.25
2023-03-10T15:40:57.324Z,96296.75
2023-03-10T15:43:26.428Z,96299.03
2023-03-10T15:45:56.762Z,96297.09
2023-03-10T15:48:25.422Z,96297.41
2023-03-10T15:50:55.330Z,96298.41
2023-03-10T15:53:27.820Z,96294.38
2023-03-10T15:55:56.773Z,96289.81
2023-03-10T15:58:25.707Z,96297.19
2023-03-10T16:00:56.079Z,96299.88
2023-03-10T16:03:25.201Z,96304.72
2023-03-10T16:05:54.548Z,96296.19
2023-03-10T16:08:23.370Z,96300.88
2023-03-10T16:10:56.534Z,96299.47
2023-03-10T16:13:26.125Z,96297.50
2023-03-10T16:15:56.439Z,96300.78
2023-03-10T16:18:25.328Z,96295.44
2023-03-10T16:20:58.621Z,96287.50
2023-03-10T16:23:28.035Z,96290.09
2023-03-10T16:26:16.029Z,96297.59
2023-03-10T16:28:48.095Z,96293.84
2023-03-10T16:31:21.668Z,96291.47
2023-03-10T16:33:52.333Z,96286.13
2023-03-10T16:36:24.163Z,96294.06
2023-03-10T16:38:53.827Z,96288.72
2023-03-10T16:41:23.769Z,96293.53
2023-03-10T16:43:54.657Z,96282.56
2023-03-10T16:46:29.913Z,96287.31
2023-03-10T16:49:02.718Z,96288.28
2023-03-10T16:51:35.379Z,96277.22
2023-03-10T16:54:06.996Z,96286.31
2023-03-10T16:56:39.403Z,96287.69
2023-03-10T16:59:09.208Z,96290.09
2023-03-10T17:01:39.578Z,96279.00
2023-03-10T17:04:08.853Z,96288.28
2023-03-10T17:06:37.908Z,96285.00
2023-03-10T17:09:09.039Z,96293.34
2023-03-10T17:11:40.778Z,96299.16
2023-03-10T17:14:14.270Z,96294.38
2023-03-10T17:16:45.820Z,96303.88
2023-03-10T17:19:18.309Z,96289.72
2023-03-10T17:21:51.530Z,96292.78
2023-03-10T17:24:21.587Z,96288.63
2023-03-10T17:26:50.311Z,96289.78
2023-03-10T17:29:19.496Z,96287.56
2023-03-10T17:31:56.050Z,96283.81
2023-03-10T17:34:24.827Z,96289.31
2023-03-10T17:36:53.902Z,96296.81
2023-03-10T17:39:25.030Z,96291.97
2023-03-10T17:41:54.491Z,96287.72
2023-03-10T17:44:23.418Z,96290.47
2023-03-10T17:46:56.057Z,96293.31
2023-03-10T17:49:24.948Z,96289.22
2023-03-10T17:51:53.750Z,96297.00
2023-03-10T17:54:23.897Z,96290.72
2023-03-10T17:56:52.763Z,96286.81
2023-03-10T17:59:23.197Z,96280.78
2023-03-10T18:01:53.466Z,96286.13
2023-03-10T18:04:30.393Z,96276.31
2023-03-10T18:06:59.179Z,96280.78
2023-03-10T18:09:28.150Z,96287.47
2023-03-10T18:11:58.351Z,96268.38
2023-03-10T18:14:27.419Z,96278.59
2023-03-10T18:16:57.907Z,96272.75
2023-03-10T18:19:27.051Z,96268.22
2023-03-10T18:21:55.996Z,96264.13
2023-03-10T18:24:26.642Z,96261.16
2023-03-10T18:26:56.789Z,96253.44
2023-03-10T18:29:25.963Z,96253.50
2023-03-10T18:31:56.451Z,96253.13
2023-03-10T18:34:25.226Z,96252.56
2023-03-10T18:36:55.020Z,96250.41
2023-03-10T18:39:24.470Z,96247.94
2023-03-10T18:41:55.926Z,96261.13
2023-03-10T18:44:25.108Z,96250.97
2023-03-10T18:46:54.159Z,96253.56
2023-03-10T18:49:25.894Z,96250.34
2023-03-10T18:51:54.836Z,96241.56
2023-03-10T18:54:23.560Z,96244.56
2023-03-10T18:56:52.294Z,96241.38
2023-03-10T18:59:21.173Z,96235.56
2023-03-10T19:01:50.045Z,96243.50
2023-03-10T19:04:20.454Z,96243.94
2023-03-10T19:06:51.275Z,96238.59
2023-03-10T19:09:25.283Z,96239.09
2023-03-10T19:11:55.324Z,96241.81
2023-03-10T19:14:29.696Z,96247.69
2023-03-10T19:16:58.777Z,96234.41
2023-03-10T19:19:30.883Z,96242.59
2023-03-10T19:22:01.514Z,96250.63
2023-03-10T19:24:30.963Z,96236.00
2023-03-10T19:27:00.544Z,96238.88
2023-03-10T19:29:29.725Z,96237.13
2023-03-10T19:31:59.614Z,96239.75
2023-03-10T19:34:28.971Z,96238.53
2023-03-10T19:36:58.259Z,96232.03
2023-03-10T19:39:28.508Z,96230.88
2023-03-10T19:41:57.231Z,96229.56
2023-03-10T19:44:29.992Z,96236.28
2023-03-10T19:46:58.834Z,96231.06
2023-03-10T19:49:28.150Z,96231.38
2023-03-10T19:51:57.367Z,96226.44
2023-03-10T19:54:30.324Z,96227.47
2023-03-10T19:57:00.507Z,96232.81
2023-03-10T19:59:30.244Z,96234.88
2023-03-10T20:02:02.493Z,96225.28
2023-03-10T20:04:34.638Z,96228.81
2023-03-10T20:07:03.406Z,96232.38
2023-03-10T20:09:35.128Z,96229.13
2023-03-10T20:12:07.262Z,96226.59
2023-03-10T20:14:35.977Z,96221.19
2023-03-10T20:17:04.765Z,96231.88
2023-03-10T20:19:33.450Z,96230.34
2023-03-10T20:22:02.271Z,96225.59
2023-03-10T20:24:31.361Z,96235.69
2023-03-10T20:27:03.533Z,96235.25
2023-03-10T20:29:32.995Z,96244.91
2023-03-10T20:32:01.804Z,96240.72
2023-03-10T20:34:30.779Z,96246.88
2023-03-10T20:36:59.883Z,96239.94
2023-03-10T20:39:28.563Z,96243.50
2023-03-10T20:41:57.348Z,96254.94
2023-03-10T20:44:27.602Z,96253.16
2023-03-10T20:46:56.458Z,96238.03
2023-03-10T20:49:28.292Z,96235.78
2023-03-10T20:51:57.153Z,96243.56
2023-03-10T20:54:25.844Z,96249.69
2023-03-10T20:56:54.588Z,96240.84
2023-03-10T20:59:29.825Z,96251.13
2023-03-10T21:01:58.771Z,96249.38
2023-03-10T21:04:28.196Z,96245.66
2023-03-10T21:06:57.039Z,96244.53
2023-03-10T21:09:25.854Z,96248.34
2023-03-10T21:11:54.639Z,96253.06
2023-03-10T21:14:23.352Z,96243.00
2023-03-10T21:16:55.351Z,96250.44
2023-03-10T21:19:24.172Z,96255.47
2023-03-10T21:21:53.557Z,96255.88
2023-03-10T21:24:22.617Z,96242.56
2023-03-10T21:26:51.374Z,96256.97
2023-03-10T21:29:20.108Z,96243.63
2023-03-10T21:31:48.846Z,96243.09
2023-03-10T21:34:18.974Z,96262.94
2023-03-10T21:36:47.983Z,96253.06
2023-03-10T21:39:17.118Z,96250.16
2023-03-10T21:41:46.223Z,96257.97
2023-03-10T21:44:15.105Z,96249.66
2023-03-10T21:46:43.877Z,96247.81
2023-03-10T21:49:12.643Z,96250.53
2023-03-10T21:51:43.134Z,96258.41
2023-03-10T21:54:12.466Z,96255.47
2023-03-10T21:56:41.596Z,96256.00
2023-03-10T21:59:10.584Z,96240.72
2023-03-10T22:01:39.382Z,96245.56
2023-03-10T22:04:08.671Z,96243.97
2023-03-10T22:06:37.529Z,96248.78
2023-03-10T22:09:07.695Z,96259.38
2023-03-10T22:11:36.594Z,96252.41
2023-03-10T22:14:05.537Z,96254.16
2023-03-10T22:16:34.195Z,96252.63
2023-03-10T22:19:03.443Z,96255.84
2023-03-10T22:21:33.096Z,96258.50
2023-03-10T22:24:03.187Z,96249.63
2023-03-10T22:26:33.306Z,96250.47
2023-03-10T22:29:02.021Z,96254.44
2023-03-10T22:31:30.807Z,96261.81
2023-03-10T22:33:59.623Z,96259.13
2023-03-10T22:36:28.321Z,96256.75
2023-03-10T22:38:57.043Z,96268.41
2023-03-10T22:41:26.034Z,96261.34
2023-03-10T22:43:56.717Z,96254.16
2023-03-10T22:46:25.549Z,96257.09
2023-03-10T22:48:54.688Z,96272.50
2023-03-10T22:51:23.367Z,96260.59
2023-03-10T22:53:52.108Z,96269.13
2023-03-10T22:56:21.040Z,96260.09
2023-03-10T22:58:49.753Z,96252.84
2023-03-10T23:01:19.901Z,96267.00
2023-03-10T23:03:48.819Z,96270.25
2023-03-10T23:06:18.900Z,96263.94
2023-03-10T23:08:48.601Z,96263.47
2023-03-10T23:11:18.089Z,96263.78
2023-03-10T23:13:46.894Z,96263.22
2023-03-10T23:16:18.119Z,96270.72
2023-03-10T23:18:48.481Z,96275.53
2023-03-10T23:21:17.336Z,96281.97
2023-03-10T23:23:48.042Z,96288.91
2023-03-10T23:26:16.954Z,96296.88
2023-03-10T23:28:46.092Z,96318.75
2023-03-10T23:31:15.798Z,96335.34
2023-03-10T23:33:45.022Z,96357.75
2023-03-10T23:36:15.789Z,96375.53
2023-03-10T23:38:44.606Z,96399.38
2023-03-10T23:41:13.869Z,96390.88
2023-03-10T23:43:42.536Z,96408.06
2023-03-10T23:46:11.414Z,96420.75
2023-03-10T23:48:40.437Z,96429.19
2023-03-10T23:51:16.170Z,96423.72
2023-03-10T23:53:45.886Z,96435.31
2023-03-10T23:56:14.539Z,96433.19
2023-03-10T23:58:43.295Z,96440.78
